Time;durP1;ratioP1;P1;durP2;ratioP2;P2;SDS_P1;SDS_P2;PMS_P1;PMS_P2;Temp;Humidity;BMP_temperature;BMP_pressure;BME280_temperature;BME280_humidity;BME280_pressure;Samples;Min_cycle;Max_cycle;Signal;HPM_P1;HPM_P2
2021/08/10 00:00:38;;;;;;;2.58;1.23;;;23.90;62.60;;;;;;4828303;29;88342;-4
2021/08/10 00:03:07;;;;;;;3.13;1.30;;;23.90;62.60;;;;;;4819218;29;88236;-5
2021/08/10 00:05:32;;;;;;;2.67;1.45;;;23.90;62.50;;;;;;4818242;29;88083;-5
2021/08/10 00:07:58;;;;;;;2.80;1.15;;;23.90;62.50;;;;;;4832573;29;88734;-4
2021/08/10 00:10:23;;;;;;;3.55;1.20;;;23.90;62.50;;;;;;4819360;29;88479;-5
2021/08/10 00:12:53;;;;;;;1.70;1.20;;;23.90;62.50;;;;;;4819276;29;87793;-9
2021/08/10 00:15:19;;;;;;;2.65;1.10;;;23.90;62.60;;;;;;4819004;29;87637;-5
2021/08/10 00:17:50;;;;;;;3.03;1.00;;;23.80;62.60;;;;;;4818303;29;88175;-6
2021/08/10 00:20:16;;;;;;;2.05;1.10;;;23.80;62.60;;;;;;4833458;29;90763;-5
2021/08/10 00:22:43;;;;;;;7.20;1.38;;;24.10;62.70;;;;;;4819255;29;87478;-10
2021/08/10 00:25:09;;;;;;;3.10;1.30;;;23.90;62.50;;;;;;4819360;29;88222;-5
2021/08/10 00:27:40;;;;;;;2.15;1.15;;;23.90;62.60;;;;;;4818025;29;88291;-7
2021/08/10 00:30:17;;;;;;;2.25;1.08;;;24.10;62.60;;;;;;4817752;29;89347;-7
2021/08/10 00:32:42;;;;;;;1.70;0.88;;;23.80;62.40;;;;;;4818637;29;88884;-7
2021/08/10 00:35:08;;;;;;;2.63;1.50;;;23.80;62.40;;;;;;4817944;29;88290;-16
2021/08/10 00:37:34;;;;;;;2.40;1.40;;;23.90;62.40;;;;;;4818864;29;87855;-7
2021/08/10 00:39:59;;;;;;;2.15;1.20;;;23.80;62.40;;;;;;4832342;29;87564;-12
2021/08/10 00:42:25;;;;;;;2.20;1.20;;;24.00;62.60;;;;;;4836907;29;87879;-5
2021/08/10 00:44:51;;;;;;;1.88;1.10;;;23.80;62.40;;;;;;4837084;29;87694;-9
2021/08/10 00:47:16;;;;;;;2.53;1.58;;;23.80;62.50;;;;;;4836926;29;87040;-13
2021/08/10 00:49:42;;;;;;;3.58;1.35;;;23.80;62.50;;;;;;4836628;29;88102;-10
2021/08/10 00:52:08;;;;;;;2.20;1.30;;;23.80;62.40;;;;;;4837158;29;88166;-13
2021/08/10 00:54:33;;;;;;;1.65;1.05;;;23.80;62.40;;;;;;4836583;29;89315;-5
2021/08/10 00:56:59;;;;;;;1.77;1.00;;;23.80;62.40;;;;;;4836941;29;87050;-7
2021/08/10 00:59:25;;;;;;;3.42;1.10;;;23.80;62.40;;;;;;4836218;29;88030;-10
2021/08/10 01:01:51;;;;;;;2.88;1.20;;;23.80;62.40;;;;;;4835565;29;87839;-9
2021/08/10 01:04:17;;;;;;;2.15;1.30;;;23.80;62.40;;;;;;4836545;29;88074;-18
2021/08/10 01:07:04;;;;;;;1.38;1.05;;;23.80;62.40;;;;;;4836911;29;88180;-6
2021/08/10 01:09:35;;;;;;;3.35;1.67;;;23.80;62.40;;;;;;4836746;29;89229;-13
2021/08/10 01:12:29;;;;;;;2.03;1.30;;;23.80;62.50;;;;;;4851451;29;89289;-5
2021/08/10 01:15:08;;;;;;;2.15;1.05;;;23.80;62.40;;;;;;4836945;29;88290;-9
2021/08/10 01:18:01;;;;;;;1.67;1.10;;;23.80;62.40;;;;;;4836502;29;88012;-12
2021/08/10 01:20:51;;;;;;;1.80;1.23;;;23.80;62.30;;;;;;4836556;29;88766;-4
2021/08/10 01:23:21;;;;;;;2.35;1.25;;;23.80;62.30;;;;;;4836421;29;88336;-4
2021/08/10 01:26:05;;;;;;;2.90;1.05;;;23.80;62.40;;;;;;4836679;29;87630;-9
2021/08/10 01:28:49;;;;;;;2.65;1.38;;;23.80;62.40;;;;;;4850055;29;88323;-12
2021/08/10 01:31:23;;;;;;;1.90;0.93;;;23.80;62.40;;;;;;4836170;29;88102;-15
2021/08/10 01:33:54;;;;;;;1.85;1.42;;;23.80;62.40;;;;;;4835948;29;88339;-6
2021/08/10 01:36:21;;;;;;;2.47;1.30;;;23.80;62.40;;;;;;4836023;29;88296;-11
2021/08/10 01:38:52;;;;;;;3.95;1.77;;;23.80;62.50;;;;;;4835999;29;87930;-9
2021/08/10 01:41:20;;;;;;;1.67;1.10;;;23.80;62.40;;;;;;4836131;29;89249;-8
2021/08/10 01:43:49;;;;;;;2.28;1.10;;;23.70;62.40;;;;;;4836430;29;88356;-11
2021/08/10 01:46:15;;;;;;;1.70;1.17;;;23.80;62.40;;;;;;4834378;29;88190;-5
2021/08/10 01:48:46;;;;;;;1.20;0.88;;;23.90;62.50;;;;;;4837056;29;87491;-14
2021/08/10 01:51:15;;;;;;;5.35;1.38;;;23.70;62.40;;;;;;4836312;29;87782;-7
2021/08/10 01:53:41;;;;;;;2.13;1.27;;;23.70;62.50;;;;;;4850112;29;91428;-17
2021/08/10 01:56:07;;;;;;;1.95;0.98;;;23.80;63.00;;;;;;4834950;29;87958;-5
2021/08/10 01:58:35;;;;;;;2.22;1.02;;;23.70;62.40;;;;;;4836318;29;87524;-7
2021/08/10 02:01:01;;;;;;;2.70;1.00;;;23.70;62.40;;;;;;4835597;29;88083;-9
2021/08/10 02:03:30;;;;;;;2.55;1.20;;;23.70;62.40;;;;;;4850489;29;91143;-5
2021/08/10 02:05:59;;;;;;;1.52;0.95;;;23.70;62.40;;;;;;4836200;29;87053;-5
2021/08/10 02:08:27;;;;;;;2.40;1.25;;;23.80;62.50;;;;;;4835604;29;87282;-7
2021/08/10 02:10:54;;;;;;;2.58;1.20;;;23.70;62.40;;;;;;4835896;29;89130;-8
2021/08/10 02:13:20;;;;;;;1.35;1.10;;;23.70;62.40;;;;;;4835973;29;88809;-10
2021/08/10 02:15:48;;;;;;;2.80;1.27;;;23.80;62.40;;;;;;4836255;29;87720;-6
2021/08/10 02:18:14;;;;;;;1.63;1.00;;;23.70;62.40;;;;;;4835588;29;87273;-5
2021/08/10 02:20:44;;;;;;;1.45;1.02;;;23.70;62.40;;;;;;4835284;29;88267;-6
2021/08/10 02:23:17;;;;;;;1.52;1.13;;;23.70;62.30;;;;;;4849675;29;89048;-16
2021/08/10 02:25:46;;;;;;;1.63;1.08;;;23.90;62.40;;;;;;4834825;29;87901;-8
2021/08/10 02:28:15;;;;;;;2.03;1.13;;;23.80;62.30;;;;;;4835006;29;87744;-7
2021/08/10 02:30:46;;;;;;;3.05;1.42;;;23.70;62.30;;;;;;4835323;29;88206;-14
2021/08/10 02:33:12;;;;;;;1.90;1.40;;;23.70;62.30;;;;;;4834629;29;89606;-10
2021/08/10 02:35:40;;;;;;;1.80;1.10;;;23.70;62.30;;;;;;4835123;29;89128;-17
2021/08/10 02:38:08;;;;;;;1.90;1.08;;;23.70;62.40;;;;;;4835136;29;88009;-5
2021/08/10 02:40:36;;;;;;;1.50;0.95;;;23.80;62.50;;;;;;4835933;29;87396;-8
2021/08/10 02:43:05;;;;;;;1.50;1.25;;;23.70;62.40;;;;;;4835577;29;89828;-4
2021/08/10 02:45:35;;;;;;;1.50;1.05;;;23.70;62.40;;;;;;4835654;29;87632;-7
2021/08/10 02:48:02;;;;;;;2.28;1.30;;;23.90;62.50;;;;;;4863670;23;87781;-14
2021/08/10 02:50:30;;;;;;;1.58;1.25;;;23.70;62.40;;;;;;4843629;29;88135;-13
2021/08/10 02:52:55;;;;;;;2.28;1.38;;;23.70;62.30;;;;;;4840927;29;90543;-13
2021/08/10 02:55:24;;;;;;;1.42;0.95;;;23.70;62.30;;;;;;4839640;29;87521;-13
2021/08/10 02:58:16;;;;;;;3.60;0.93;;;23.70;62.40;;;;;;4850995;28;88532;-17
2021/08/10 03:01:01;;;;;;;1.65;0.88;;;23.70;62.30;;;;;;4837046;29;89089;-19
2021/08/10 03:03:32;;;;;;;1.67;1.00;;;23.70;62.30;;;;;;4845475;29;88652;-14
2021/08/10 03:06:01;;;;;;;2.97;1.02;;;23.70;62.30;;;;;;4837811;28;87815;-17
2021/08/10 03:08:30;;;;;;;1.42;1.10;;;23.80;62.30;;;;;;4837119;29;87627;-13
2021/08/10 03:10:59;;;;;;;2.33;1.48;;;23.70;62.30;;;;;;4837285;29;88226;-13
2021/08/10 03:13:29;;;;;;;2.58;1.40;;;23.70;62.30;;;;;;4838697;29;88258;-14
2021/08/10 03:15:57;;;;;;;1.38;1.00;;;23.70;62.30;;;;;;4848873;29;88198;-15
2021/08/10 03:18:27;;;;;;;2.20;1.10;;;23.70;62.30;;;;;;4856116;29;87192;-15
2021/08/10 03:20:57;;;;;;;1.38;0.90;;;23.60;62.30;;;;;;4857067;28;88188;-17
2021/08/10 03:23:26;;;;;;;2.05;0.90;;;23.60;62.30;;;;;;4843814;29;89954;-14
2021/08/10 03:25:52;;;;;;;1.40;1.05;;;23.70;62.40;;;;;;4851091;29;88870;-13
2021/08/10 03:28:20;;;;;;;2.50;1.20;;;23.70;62.30;;;;;;4837760;29;87898;-13
2021/08/10 03:30:47;;;;;;;1.52;0.95;;;23.70;62.30;;;;;;4838933;28;88087;-13
2021/08/10 03:33:13;;;;;;;1.88;1.05;;;23.60;62.30;;;;;;4853763;29;87882;-15
2021/08/10 03:35:40;;;;;;;2.13;1.15;;;23.70;62.30;;;;;;4846599;29;88179;-14
2021/08/10 03:38:07;;;;;;;1.10;1.00;;;23.70;62.40;;;;;;4838685;29;87526;-19
2021/08/10 03:40:33;;;;;;;1.63;1.20;;;23.70;62.30;;;;;;4838114;29;87803;-13
2021/08/10 03:43:02;;;;;;;1.33;1.00;;;23.60;62.30;;;;;;4838199;29;87756;-18
2021/08/10 03:45:28;;;;;;;2.15;1.27;;;23.60;62.30;;;;;;4847717;29;87550;-16
2021/08/10 03:47:59;;;;;;;1.48;0.95;;;23.80;62.40;;;;;;4856638;28;88152;-19
2021/08/10 03:50:25;;;;;;;2.17;0.90;;;23.80;62.40;;;;;;4856156;28;90083;-13
2021/08/10 03:52:51;;;;;;;1.40;1.00;;;23.60;62.30;;;;;;4842773;28;88748;-14
2021/08/10 03:55:17;;;;;;;2.17;1.48;;;23.60;62.40;;;;;;4838394;29;87770;-14
2021/08/10 03:57:45;;;;;;;1.45;1.02;;;23.60;62.40;;;;;;4838189;29;87103;-15
2021/08/10 04:00:12;;;;;;;1.77;1.15;;;23.60;62.40;;;;;;4852011;28;90235;-14
2021/08/10 04:02:40;;;;;;;1.33;1.02;;;23.60;62.40;;;;;;4837360;29;88252;-20
2021/08/10 04:05:09;;;;;;;1.48;0.80;;;23.60;63.00;;;;;;4837857;29;88251;-16
2021/08/10 04:07:35;;;;;;;1.00;0.85;;;23.60;62.40;;;;;;4844560;29;86995;-14
2021/08/10 04:10:03;;;;;;;1.17;0.93;;;23.60;62.40;;;;;;4841184;29;87904;-18
2021/08/10 04:12:29;;;;;;;0.93;0.90;;;23.60;62.30;;;;;;4845466;29;87688;-15
2021/08/10 04:14:54;;;;;;;1.63;0.90;;;23.60;62.30;;;;;;4855339;28;88620;-16
2021/08/10 04:17:24;;;;;;;0.90;0.80;;;23.60;62.30;;;;;;4852331;28;90033;-12
2021/08/10 04:19:52;;;;;;;1.65;1.17;;;23.60;62.30;;;;;;4840607;29;88003;-13
2021/08/10 04:22:18;;;;;;;1.50;1.00;;;23.60;62.30;;;;;;4867142;28;90187;-17
2021/08/10 04:24:45;;;;;;;1.45;0.88;;;23.60;62.40;;;;;;4856547;29;87695;-14
2021/08/10 04:27:17;;;;;;;1.38;0.90;;;23.60;62.40;;;;;;4848779;29;87886;-15
2021/08/10 04:29:42;;;;;;;1.58;1.05;;;23.60;62.30;;;;;;4846436;28;87346;-14
2021/08/10 04:32:08;;;;;;;1.17;0.98;;;23.60;62.30;;;;;;4837191;29;87699;-13
2021/08/10 04:34:35;;;;;;;1.20;0.98;;;23.60;62.30;;;;;;4835956;29;87754;-26
2021/08/10 04:37:02;;;;;;;1.10;0.93;;;23.60;62.30;;;;;;4847064;29;87921;-20
2021/08/10 04:39:28;;;;;;;2.13;1.00;;;23.50;62.20;;;;;;4843869;29;89303;-18
2021/08/10 04:41:55;;;;;;;1.23;1.00;;;23.90;62.50;;;;;;4840331;29;89982;-17
2021/08/10 04:44:21;;;;;;;1.92;1.20;;;23.60;62.30;;;;;;4854532;28;88220;-19
2021/08/10 04:46:48;;;;;;;1.38;0.80;;;23.80;62.40;;;;;;4837833;29;87517;-14
2021/08/10 04:49:13;;;;;;;1.60;1.10;;;23.60;62.30;;;;;;4837310;29;88506;-13
2021/08/10 04:51:39;;;;;;;2.38;1.05;;;23.60;62.30;;;;;;4851480;28;88985;-18
2021/08/10 04:54:04;;;;;;;1.20;1.00;;;23.60;62.30;;;;;;4837596;29;88300;-18
2021/08/10 04:56:30;;;;;;;1.50;1.20;;;23.60;62.30;;;;;;4837652;29;87140;-16
2021/08/10 04:58:55;;;;;;;1.40;0.90;;;23.50;62.20;;;;;;4850870;29;88104;-17
2021/08/10 05:01:21;;;;;;;1.50;0.95;;;23.50;62.20;;;;;;4855927;28;87677;-14
2021/08/10 05:03:47;;;;;;;1.75;1.20;;;23.50;62.20;;;;;;4855824;29;89094;-12
2021/08/10 05:06:12;;;;;;;1.40;0.95;;;23.50;62.20;;;;;;4855663;29;87840;-15
2021/08/10 05:08:38;;;;;;;1.65;0.95;;;23.50;62.20;;;;;;4854728;28;88191;-18
2021/08/10 05:11:11;;;;;;;2.05;1.15;;;23.60;62.30;;;;;;4855242;29;88141;-25
2021/08/10 05:13:38;;;;;;;1.27;0.80;;;23.60;62.20;;;;;;4855286;28;88166;-18
2021/08/10 05:16:07;;;;;;;1.25;0.90;;;23.60;62.10;;;;;;4856165;28;88220;-17
2021/08/10 05:18:36;;;;;;;1.48;1.20;;;23.60;62.10;;;;;;4848388;29;88169;-13
2021/08/10 05:21:02;;;;;;;3.35;1.20;;;23.60;62.00;;;;;;4836275;29;87689;-13
2021/08/10 05:23:28;;;;;;;1.50;0.70;;;23.60;61.90;;;;;;4836946;29;87791;-20
2021/08/10 05:25:53;;;;;;;2.08;0.80;;;23.80;62.00;;;;;;4837063;29;88735;-14
2021/08/10 05:28:19;;;;;;;1.35;1.00;;;23.70;61.90;;;;;;4835663;29;89247;-16
2021/08/10 05:30:44;;;;;;;1.05;0.70;;;23.70;61.90;;;;;;4837229;29;88264;-13
2021/08/10 05:33:10;;;;;;;2.30;0.98;;;23.70;61.90;;;;;;4850316;29;88331;-13
2021/08/10 05:35:35;;;;;;;1.67;0.90;;;23.70;61.90;;;;;;4836207;29;89073;-28
2021/08/10 05:38:01;;;;;;;1.10;0.73;;;23.70;61.90;;;;;;4850353;28;91233;-18
2021/08/10 05:40:28;;;;;;;4.25;1.17;;;23.70;61.90;;;;;;4836967;29;87910;-14
2021/08/10 05:42:53;;;;;;;1.33;1.00;;;23.70;61.90;;;;;;4851040;28;88193;-13
2021/08/10 05:45:19;;;;;;;1.52;0.95;;;24.00;62.10;;;;;;4839841;29;86974;-15
2021/08/10 05:47:44;;;;;;;2.70;1.00;;;23.80;62.00;;;;;;4855234;29;88368;-13
2021/08/10 05:50:10;;;;;;;5.07;1.88;;;23.80;62.00;;;;;;4852307;29;87919;-13
2021/08/10 05:52:42;;;;;;;5.15;1.90;;;24.00;62.10;;;;;;4848876;28;89543;-16
2021/08/10 05:55:11;;;;;;;4.13;1.60;;;24.10;62.20;;;;;;4868514;28;88530;-15
2021/08/10 05:57:36;;;;;;;2.95;1.77;;;24.10;62.70;;;;;;4854748;29;87646;-12
2021/08/10 06:00:02;;;;;;;5.20;1.70;;;23.90;62.10;;;;;;4854569;28;88352;-18
2021/08/10 06:02:28;;;;;;;5.18;2.47;;;23.90;62.00;;;;;;4850631;29;88145;-11
2021/08/10 06:07:19;;;;;;;11.52;3.38;;;24.00;61.90;;;;;;4847717;29;95395;-19
2021/08/10 06:09:46;;;;;;;9.85;3.17;;;24.10;61.90;;;;;;4821118;29;93369;-19
2021/08/10 06:12:12;;;;;;;8.05;2.83;;;24.10;61.90;;;;;;4831283;29;92846;-14
2021/08/10 06:14:38;;;;;;;11.45;3.00;;;24.10;62.00;;;;;;4847434;29;92298;-13
2021/08/10 06:17:04;;;;;;;11.32;3.25;;;24.10;62.00;;;;;;4832989;29;95371;-17
2021/08/10 06:19:30;;;;;;;14.88;3.15;;;24.10;61.90;;;;;;4824394;29;93411;-18
2021/08/10 06:21:57;;;;;;;13.57;3.22;;;24.20;61.90;;;;;;4832208;29;92676;-19
2021/08/10 06:24:23;;;;;;;9.88;3.58;;;23.90;62.00;;;;;;4833204;29;92766;-13
2021/08/10 06:26:48;;;;;;;12.25;3.67;;;24.10;62.50;;;;;;4832018;29;93238;-15
2021/08/10 06:29:15;;;;;;;12.13;3.00;;;24.10;62.60;;;;;;4825372;29;93394;-13
2021/08/10 06:31:41;;;;;;;9.90;3.35;;;24.10;62.40;;;;;;4815583;29;92986;-15
2021/08/10 06:34:08;;;;;;;12.02;4.07;;;24.20;62.40;;;;;;4818752;29;91973;-17
2021/08/10 06:36:35;;;;;;;11.38;3.33;;;24.20;62.30;;;;;;4821797;29;94354;-12
2021/08/10 06:39:01;;;;;;;9.60;3.47;;;24.20;62.40;;;;;;4833396;29;92998;-15
2021/08/10 06:41:26;;;;;;;16.23;3.75;;;24.20;62.40;;;;;;4817956;29;93840;-13
2021/08/10 06:43:52;;;;;;;13.50;3.78;;;24.20;62.60;;;;;;4818380;29;92725;-14
2021/08/10 06:46:18;;;;;;;12.07;4.00;;;24.10;62.50;;;;;;4823306;29;93031;-16
2021/08/10 06:48:43;;;;;;;12.65;4.18;;;24.20;62.50;;;;;;4849410;29;93953;-11
2021/08/10 06:51:09;;;;;;;8.98;3.28;;;24.20;62.70;;;;;;4835660;29;92825;-13
2021/08/10 06:53:38;;;;;;;15.60;3.65;;;24.10;62.60;;;;;;4833663;29;92565;-18
2021/08/10 06:56:04;;;;;;;13.15;3.92;;;24.10;62.60;;;;;;4823997;29;93206;-14
2021/08/10 06:58:30;;;;;;;10.75;3.67;;;24.10;62.60;;;;;;4823049;29;93634;-13
2021/08/10 07:00:55;;;;;;;12.13;3.75;;;24.20;62.60;;;;;;4824435;29;92706;-16
2021/08/10 07:03:21;;;;;;;10.75;3.58;;;24.20;62.50;;;;;;4822698;29;93067;-16
2021/08/10 07:05:46;;;;;;;10.00;3.03;;;24.20;62.50;;;;;;4823106;29;94417;-16
2021/08/10 07:08:12;;;;;;;11.68;3.47;;;24.20;62.60;;;;;;4821800;29;93953;-15
2021/08/10 07:10:38;;;;;;;8.25;3.05;;;24.20;62.70;;;;;;4828172;29;93123;-13
2021/08/10 07:13:03;;;;;;;9.10;3.67;;;24.20;62.90;;;;;;4820671;29;93777;-12
2021/08/10 07:15:29;;;;;;;9.98;3.50;;;24.10;63.30;;;;;;4831813;29;92947;-13
2021/08/10 07:17:55;;;;;;;8.80;3.30;;;24.10;63.50;;;;;;4822091;29;93378;-13
2021/08/10 07:20:20;;;;;;;7.68;3.55;;;24.10;64.00;;;;;;4816799;29;92806;-17
2021/08/10 07:22:46;;;;;;;7.03;2.75;;;24.10;64.10;;;;;;4815746;29;91977;-15
2021/08/10 07:25:11;;;;;;;8.32;3.10;;;24.10;64.30;;;;;;4815232;29;92679;-18
2021/08/10 07:27:37;;;;;;;8.05;2.53;;;24.00;64.30;;;;;;4815482;29;93606;-12
2021/08/10 07:30:03;;;;;;;11.98;3.22;;;24.00;64.40;;;;;;4828066;29;94155;-13
2021/08/10 07:32:29;;;;;;;11.70;3.28;;;23.90;64.50;;;;;;4836101;29;93277;-22
2021/08/10 07:34:54;;;;;;;12.40;3.15;;;24.00;65.40;;;;;;4835928;29;93387;-14
2021/08/10 07:37:20;;;;;;;10.35;3.33;;;24.00;65.50;;;;;;4817059;29;92955;-14
2021/08/10 07:39:45;;;;;;;10.38;3.30;;;24.00;65.40;;;;;;4830933;29;93363;-14
2021/08/10 07:42:11;;;;;;;7.18;3.10;;;24.10;65.40;;;;;;4817392;29;93047;-17
2021/08/10 07:44:37;;;;;;;12.40;3.70;;;24.00;65.40;;;;;;4816497;29;93287;-12
2021/08/10 07:47:04;;;;;;;8.57;3.90;;;24.00;65.40;;;;;;4817112;29;92719;-12
2021/08/10 07:49:30;;;;;;;11.32;3.58;;;24.00;65.10;;;;;;4817032;29;93391;-31
2021/08/10 07:51:55;;;;;;;9.68;3.22;;;24.10;65.00;;;;;;4817164;29;93371;-14
2021/08/10 07:54:21;;;;;;;9.77;2.55;;;24.00;64.90;;;;;;4815740;29;94288;-15
2021/08/10 07:56:46;;;;;;;12.98;2.90;;;23.90;64.70;;;;;;4815411;29;93897;-12
2021/08/10 07:59:12;;;;;;;13.30;3.83;;;24.00;64.70;;;;;;4817429;29;93383;-14
2021/08/10 08:01:37;;;;;;;11.35;3.20;;;24.10;65.00;;;;;;4816396;29;94430;-12
2021/08/10 08:04:03;;;;;;;7.00;3.40;;;24.00;65.00;;;;;;4816258;29;94562;-12
2021/08/10 08:06:28;;;;;;;9.70;2.97;;;24.00;64.90;;;;;;4820754;29;93871;-12
2021/08/10 08:08:57;;;;;;;7.85;3.15;;;24.20;64.90;;;;;;4825064;29;92201;-14
2021/08/10 08:11:23;;;;;;;12.77;3.72;;;24.00;64.70;;;;;;4817064;29;92177;-14
2021/08/10 08:13:49;;;;;;;14.07;3.55;;;24.00;64.90;;;;;;4837386;29;96384;-16
2021/08/10 08:16:15;;;;;;;9.98;3.47;;;24.00;65.00;;;;;;4834765;29;92758;-21
2021/08/10 08:18:42;;;;;;;10.73;3.35;;;24.10;65.20;;;;;;4834133;29;94179;-17
2021/08/10 08:21:08;;;;;;;11.35;3.08;;;24.00;65.00;;;;;;4842218;29;93599;-16
2021/08/10 08:23:34;;;;;;;5.57;2.75;;;24.30;65.00;;;;;;4822947;29;93560;-14
2021/08/10 08:26:00;;;;;;;6.38;3.28;;;24.10;64.90;;;;;;4822377;29;93410;-14
2021/08/10 08:28:25;;;;;;;6.70;2.75;;;24.20;64.70;;;;;;4816879;29;93132;-17
2021/08/10 08:30:51;;;;;;;10.80;3.58;;;24.10;64.60;;;;;;4816302;29;93205;-14
2021/08/10 08:33:17;;;;;;;7.50;3.63;;;24.20;64.80;;;;;;4815157;29;92792;-13
2021/08/10 08:35:43;;;;;;;10.10;3.25;;;24.10;65.10;;;;;;4816094;29;92447;-17
2021/08/10 08:38:10;;;;;;;7.30;3.13;;;24.10;65.40;;;;;;4831304;29;92715;-13
2021/08/10 08:40:38;;;;;;;8.00;3.25;;;24.10;65.40;;;;;;4815733;29;92821;-13
2021/08/10 08:43:05;;;;;;;8.45;3.30;;;24.00;65.50;;;;;;4832254;29;94220;-12
2021/08/10 08:45:31;;;;;;;11.13;3.40;;;23.90;65.30;;;;;;4825840;28;93927;-13
2021/08/10 08:48:02;;;;;;;11.07;3.42;;;24.10;65.60;;;;;;4815502;29;92424;-14
2021/08/10 08:50:31;;;;;;;7.60;3.13;;;24.00;65.80;;;;;;4821659;29;92693;-15
2021/08/10 08:52:58;;;;;;;10.23;2.97;;;24.00;65.70;;;;;;4821998;29;94752;-13
2021/08/10 08:55:25;;;;;;;5.25;2.95;;;24.00;65.50;;;;;;4822385;29;93106;-12
2021/08/10 08:57:50;;;;;;;7.43;3.13;;;24.00;65.50;;;;;;4823427;29;92858;-13
2021/08/10 09:00:17;;;;;;;8.82;2.88;;;24.10;65.50;;;;;;4822735;29;91648;-12
2021/08/10 09:02:45;;;;;;;9.75;2.88;;;24.10;65.50;;;;;;4821616;29;93491;-17
2021/08/10 09:05:14;;;;;;;7.28;2.92;;;24.10;65.40;;;;;;4823740;29;92813;-17
2021/08/10 09:07:41;;;;;;;12.75;3.92;;;24.10;65.30;;;;;;4820767;29;93323;-13
2021/08/10 09:10:12;;;;;;;7.57;3.22;;;24.30;65.50;;;;;;4822764;29;93193;-14
2021/08/10 09:12:46;;;;;;;6.57;2.90;;;24.10;65.60;;;;;;4822702;29;94491;-20
2021/08/10 09:15:32;;;;;;;8.05;3.30;;;24.10;65.70;;;;;;4821938;29;92240;-25
2021/08/10 09:18:12;;;;;;;8.93;2.70;;;24.10;65.70;;;;;;4836152;29;93483;-15
2021/08/10 09:20:39;;;;;;;6.47;3.05;;;24.10;65.80;;;;;;4822403;29;92796;-19
2021/08/10 09:23:05;;;;;;;7.50;3.17;;;24.10;65.80;;;;;;4821888;29;93247;-13
2021/08/10 09:25:33;;;;;;;7.32;3.47;;;24.10;65.90;;;;;;4822923;29;92420;-13
2021/08/10 09:28:06;;;;;;;10.70;3.40;;;24.20;66.10;;;;;;4823063;29;92313;-23
2021/08/10 09:30:34;;;;;;;6.72;2.78;;;24.10;66.10;;;;;;4821963;29;92242;-17
2021/08/10 09:33:11;;;;;;;5.50;2.90;;;24.10;66.20;;;;;;4818222;29;95355;-13
2021/08/10 09:35:38;;;;;;;7.88;3.15;;;24.10;66.20;;;;;;4821108;29;94317;-16
2021/08/10 09:38:06;;;;;;;6.40;2.90;;;24.10;66.20;;;;;;4822877;29;92474;-13
2021/08/10 09:40:37;;;;;;;6.60;2.78;;;24.10;66.30;;;;;;4823181;29;92670;-16
2021/08/10 09:43:32;;;;;;;4.70;2.85;;;24.10;66.20;;;;;;4822956;29;94088;-13
2021/08/10 09:46:17;;;;;;;6.70;2.78;;;24.10;66.30;;;;;;4816945;29;94513;-13
2021/08/10 09:48:49;;;;;;;11.77;3.45;;;24.10;66.40;;;;;;4823293;29;93174;-18
2021/08/10 09:51:17;;;;;;;11.73;3.03;;;24.10;66.40;;;;;;4815383;29;92311;-20
2021/08/10 09:53:56;;;;;;;11.50;2.90;;;24.10;66.70;;;;;;4824744;29;94097;-21
2021/08/10 09:56:53;;;;;;;7.30;2.95;;;24.10;66.70;;;;;;4825278;29;92445;-15
2021/08/10 09:59:21;;;;;;;7.10;3.00;;;24.20;66.80;;;;;;4838275;29;93960;-16
2021/08/10 10:01:53;;;;;;;12.85;3.22;;;24.10;66.70;;;;;;4824004;29;92605;-12
2021/08/10 10:04:20;;;;;;;8.82;3.10;;;24.10;66.80;;;;;;4815182;29;93715;-13
2021/08/10 10:06:48;;;;;;;16.00;2.58;;;24.10;66.90;;;;;;4818193;29;92863;-15
2021/08/10 10:09:14;;;;;;;10.82;2.97;;;24.10;66.80;;;;;;4836014;29;92409;-30
2021/08/10 10:11:42;;;;;;;11.70;4.32;;;24.10;66.80;;;;;;4824971;29;93010;-13
2021/08/10 10:14:09;;;;;;;72.82;19.55;;;24.10;66.70;;;;;;4822331;29;92894;-2
2021/08/10 10:16:37;;;;;;;63.40;15.50;;;24.30;67.00;;;;;;4836374;29;93606;-7
2021/08/10 10:19:11;;;;;;;60.20;19.00;;;24.10;66.70;;;;;;4835945;29;93418;-1
2021/08/10 10:21:49;;;;;;;58.50;18.83;;;24.10;66.70;;;;;;4836814;29;92919;-2
2021/08/10 10:24:17;;;;;;;88.10;25.63;;;24.10;66.70;;;;;;4836028;29;94750;-4
2021/08/10 10:26:53;;;;;;;101.00;25.35;;;24.10;66.80;;;;;;4819192;29;93894;-5
2021/08/10 10:29:19;;;;;;;111.28;29.13;;;24.10;66.70;;;;;;4817215;29;92981;-2
2021/08/10 10:31:45;;;;;;;164.80;44.42;;;24.10;66.70;;;;;;4817946;29;93413;0
2021/08/10 10:34:15;;;;;;;155.90;38.40;;;24.10;66.90;;;;;;4817203;29;93229;0
2021/08/10 10:36:43;;;;;;;120.65;34.45;;;24.10;66.70;;;;;;4816414;29;93176;-1
2021/08/10 10:39:10;;;;;;;126.15;30.13;;;24.10;66.40;;;;;;4816049;29;93081;-10
2021/08/10 10:41:36;;;;;;;116.05;29.38;;;24.40;66.50;;;;;;4816970;29;92471;-1
2021/08/10 10:44:02;;;;;;;106.22;28.55;;;24.10;66.40;;;;;;4816607;29;94585;-7
2021/08/10 10:46:37;;;;;;;104.70;29.08;;;24.10;66.50;;;;;;4816560;29;93504;-4
2021/08/10 10:49:04;;;;;;;96.70;25.88;;;24.00;66.30;;;;;;4816256;29;94300;-5
2021/08/10 10:51:38;;;;;;;89.45;26.88;;;24.20;66.30;;;;;;4835096;29;92571;-2
2021/08/10 10:54:23;;;;;;;95.45;26.63;;;24.20;66.50;;;;;;4835328;29;93392;-1
2021/08/10 10:56:51;;;;;;;90.72;26.52;;;24.20;66.50;;;;;;4835165;29;92896;-1
2021/08/10 11:01:48;;;;;;;92.03;25.25;;;24.20;66.50;;;;;;4777636;29;94029;-4
2021/08/10 11:04:14;;;;;;;80.32;24.23;;;24.20;66.40;;;;;;4777768;29;93463;-13
2021/08/10 11:06:46;;;;;;;80.93;26.13;;;24.20;66.30;;;;;;4780374;29;92618;-12
2021/08/10 11:09:37;;;;;;;79.72;23.10;;;24.20;66.40;;;;;;4780786;29;92571;-4
2021/08/10 11:12:04;;;;;;;77.70;22.77;;;24.20;66.30;;;;;;4779745;29;93251;-10
2021/08/10 11:14:39;;;;;;;75.32;25.20;;;24.20;66.10;;;;;;4778928;29;94550;-8
2021/08/10 11:17:08;;;;;;;96.32;24.40;;;24.20;66.30;;;;;;4779688;29;93528;-11
2021/08/10 11:19:35;;;;;;;71.00;21.50;;;24.20;66.30;;;;;;4779887;29;93397;-4
2021/08/10 11:22:16;;;;;;;67.60;21.65;;;24.30;66.30;;;;;;4780334;29;92645;-16
2021/08/10 11:24:50;;;;;;;64.88;21.45;;;24.20;66.10;;;;;;4779320;29;92834;-5
2021/08/10 11:27:36;;;;;;;68.80;21.45;;;24.20;66.00;;;;;;4779266;29;93610;-4
2021/08/10 11:30:05;;;;;;;59.17;20.48;;;24.20;66.00;;;;;;4778778;29;92431;-7
2021/08/10 11:32:46;;;;;;;68.85;21.00;;;24.10;66.00;;;;;;4778835;29;92257;-8
2021/08/10 11:35:41;;;;;;;60.55;19.88;;;24.10;65.90;;;;;;4778359;29;93142;-7
2021/08/10 11:38:18;;;;;;;65.30;20.00;;;23.90;65.60;;;;;;4774723;29;92853;-6
2021/08/10 11:41:02;;;;;;;61.78;20.63;;;24.20;65.70;;;;;;4779485;29;93651;-7
2021/08/10 11:43:42;;;;;;;61.58;20.73;;;24.40;65.70;;;;;;4780191;29;93371;-7
2021/08/10 11:46:26;;;;;;;64.45;20.17;;;24.20;65.40;;;;;;4780013;29;92848;-13
2021/08/10 11:49:06;;;;;;;52.83;18.20;;;24.20;65.40;;;;;;4779617;29;92422;-5
2021/08/10 11:51:43;;;;;;;66.72;18.90;;;24.20;65.20;;;;;;4779329;29;93023;-5
2021/08/10 11:54:19;;;;;;;56.70;18.23;;;24.20;65.20;;;;;;4779159;29;93029;-7
2021/08/10 11:56:53;;;;;;;53.75;18.13;;;24.20;65.40;;;;;;4779117;29;93288;-9
2021/08/10 11:59:24;;;;;;;54.78;18.45;;;24.10;65.60;;;;;;4778882;29;92046;-13
2021/08/10 12:02:00;;;;;;;52.83;17.48;;;24.10;65.90;;;;;;4778377;29;92759;-11
2021/08/10 12:04:30;;;;;;;53.67;18.33;;;24.10;66.00;;;;;;4779072;29;93432;-14
2021/08/10 12:06:58;;;;;;;56.78;19.13;;;24.00;66.10;;;;;;4778931;29;94734;-9
2021/08/10 12:09:39;;;;;;;52.50;16.98;;;24.10;66.00;;;;;;4779579;29;93831;-16
2021/08/10 12:12:07;;;;;;;56.00;17.85;;;24.00;66.00;;;;;;4779448;29;92642;-7
2021/08/10 12:14:34;;;;;;;52.42;17.25;;;24.00;66.00;;;;;;4779487;29;92218;-8
2021/08/10 12:17:06;;;;;;;56.53;17.52;;;24.00;66.10;;;;;;4779175;29;93692;-10
2021/08/10 12:19:38;;;;;;;51.42;16.73;;;24.00;66.00;;;;;;4779438;29;93088;-8
2021/08/10 12:22:14;;;;;;;48.33;17.20;;;24.00;66.00;;;;;;4778808;29;93272;-4
2021/08/10 12:24:40;;;;;;;46.95;16.88;;;24.00;66.00;;;;;;4778837;29;92137;-10
2021/08/10 12:27:08;;;;;;;40.85;15.82;;;24.10;65.90;;;;;;4777402;29;95051;-6
2021/08/10 12:29:41;;;;;;;44.90;15.93;;;24.10;65.90;;;;;;4778315;29;92938;-13
2021/08/10 12:32:10;;;;;;;46.75;15.95;;;24.10;65.80;;;;;;4777744;29;93176;-6
2021/08/10 12:34:38;;;;;;;49.28;15.40;;;24.10;65.80;;;;;;4777411;29;93074;-4
2021/08/10 12:37:05;;;;;;;44.35;15.73;;;24.10;65.70;;;;;;4778263;29;94123;-6
2021/08/10 12:39:45;;;;;;;42.15;15.00;;;24.10;65.70;;;;;;4778256;29;93063;-9
2021/08/10 12:42:12;;;;;;;42.75;14.60;;;24.10;65.70;;;;;;4778128;29;93159;-6
2021/08/10 12:44:39;;;;;;;44.72;15.75;;;24.10;65.70;;;;;;4778001;29;92808;-6
2021/08/10 12:47:07;;;;;;;42.35;14.88;;;24.00;65.70;;;;;;4778579;29;93123;-9
2021/08/10 12:49:41;;;;;;;48.90;15.50;;;24.00;65.70;;;;;;4779809;29;92654;-8
2021/08/10 12:52:08;;;;;;;43.78;15.75;;;24.00;65.60;;;;;;4779498;29;93154;-7
2021/08/10 12:54:39;;;;;;;33.75;14.50;;;24.00;65.50;;;;;;4779204;29;93082;-12
2021/08/10 12:57:18;;;;;;;39.72;13.73;;;24.00;65.60;;;;;;4777625;29;94309;-15